Time;durP1;ratioP1;P1;durP2;ratioP2;P2;SDS_P1;SDS_P2;PMS_P1;PMS_P2;Temp;Humidity;BMP_temperature;BMP_pressure;BME280_temperature;BME280_humidity;BME280_pressure;Samples;Min_cycle;Max_cycle;Signal;HPM_P1;HPM_P2
2024/03/03 00:00:29;;;;;;;57.92;29.08;;;;;;;;;;5042432;28;20030;-66
2024/03/03 00:02:55;;;;;;;51.92;28.58;;;8.10;99.90;;;;;;5042148;28;20037;-69
2024/03/03 00:05:21;;;;;;;54.60;28.55;;;;;;;;;;5041995;28;20018;-66
2024/03/03 00:07:47;;;;;;;53.60;29.42;;;;;;;;;;5042361;28;20052;-66
2024/03/03 00:10:13;;;;;;;46.13;26.25;;;;;;;;;;5041915;28;20063;-69
2024/03/03 00:12:39;;;;;;;52.97;29.10;;;;;;;;;;5041830;28;20051;-65
2024/03/03 00:15:05;;;;;;;49.30;27.38;;;8.60;99.90;;;;;;5041646;28;20022;-66
2024/03/03 00:17:31;;;;;;;49.40;26.65;;;;;;;;;;5041677;28;20021;-66
2024/03/03 00:19:57;;;;;;;48.95;26.63;;;8.20;99.90;;;;;;5041476;28;20032;-66
2024/03/03 00:22:23;;;;;;;50.53;27.17;;;;;;;;;;5041676;28;20033;-66
2024/03/03 00:24:49;;;;;;;50.67;27.63;;;;;;;;;;5045468;28;20029;-65
2024/03/03 00:27:15;;;;;;;46.70;26.90;;;;;;;;;;5045561;28;20081;-66
2024/03/03 00:29:41;;;;;;;51.60;27.85;;;;;;;;;;5044288;28;20063;-66
2024/03/03 00:32:07;;;;;;;45.78;26.75;;;8.30;99.90;;;;;;5043160;28;20230;-66
2024/03/03 00:34:33;;;;;;;53.78;28.77;;;;;;;;;;5042987;28;20084;-65
2024/03/03 00:36:59;;;;;;;49.33;27.55;;;;;;;;;;5041819;28;20137;-65
2024/03/03 00:39:24;;;;;;;55.30;28.48;;;8.10;99.90;;;;;;5042940;28;20088;-65
2024/03/03 00:41:50;;;;;;;55.28;28.23;;;;;;;;;;5043104;28;20096;-65
2024/03/03 00:44:16;;;;;;;57.78;28.55;;;7.70;99.90;;;;;;5043120;28;20020;-65
2024/03/03 00:46:42;;;;;;;56.42;29.85;;;7.90;99.90;;;;;;5042823;28;20029;-65
2024/03/03 00:49:08;;;;;;;57.25;28.92;;;;;;;;;;5042614;28;20321;-66
2024/03/03 00:51:36;;;;;;;58.08;29.55;;;7.70;99.90;;;;;;5042592;28;20033;-66
2024/03/03 00:54:02;;;;;;;54.03;28.08;;;;;;;;;;5042214;28;20017;-65
2024/03/03 00:56:28;;;;;;;55.22;28.20;;;;;;;;;;5042486;28;20085;-64
2024/03/03 00:58:54;;;;;;;58.88;29.73;;;;;;;;;;5042088;28;20108;-65
2024/03/03 01:01:20;;;;;;;56.08;30.65;;;;;;;;;;5042119;28;20061;-66
2024/03/03 01:03:46;;;;;;;54.03;28.05;;;7.70;99.90;;;;;;5042157;28;20037;-66
2024/03/03 01:06:11;;;;;;;49.28;28.02;;;7.60;99.90;;;;;;5042264;28;20198;-66
2024/03/03 01:08:37;;;;;;;54.65;29.25;;;;;;;;;;5040483;28;20034;-67
2024/03/03 01:11:04;;;;;;;50.95;28.17;;;;;;;;;;5022157;28;20033;-66
2024/03/03 01:13:29;;;;;;;52.28;28.42;;;;;;;;;;5024526;28;20534;-66
2024/03/03 01:15:55;;;;;;;54.10;28.10;;;;;;;;;;5020978;28;20077;-67
2024/03/03 01:18:21;;;;;;;53.35;28.98;;;;;;;;;;5022093;28;20108;-67
2024/03/03 01:20:47;;;;;;;58.25;29.48;;;;;;;;;;5039812;28;20028;-66
2024/03/03 01:23:14;;;;;;;63.25;32.22;;;7.70;99.90;;;;;;5039382;28;20029;-69
2024/03/03 01:25:40;;;;;;;65.95;31.50;;;;;;;;;;5021186;28;20033;-69
2024/03/03 01:28:07;;;;;;;58.08;31.63;;;;;;;;;;5022109;28;20025;-69
2024/03/03 01:30:33;;;;;;;59.47;30.75;;;;;;;;;;5021685;28;20053;-69
2024/03/03 01:32:59;;;;;;;56.17;30.73;;;;;;;;;;5021930;28;20032;-69
2024/03/03 01:35:25;;;;;;;60.85;30.63;;;7.90;99.90;;;;;;5020394;28;20066;-69
2024/03/03 01:37:51;;;;;;;56.28;30.67;;;8.10;99.90;;;;;;5040826;28;20250;-69
2024/03/03 01:40:18;;;;;;;61.72;30.02;;;8.10;99.90;;;;;;5041455;28;20092;-69
2024/03/03 01:42:44;;;;;;;58.70;31.63;;;;;;;;;;5041355;28;20069;-70
2024/03/03 01:45:24;;;;;;;57.72;32.83;;;8.20;99.90;;;;;;5041739;28;20029;-69
2024/03/03 01:47:55;;;;;;;55.50;31.25;;;8.30;99.90;;;;;;5041274;28;20021;-69
2024/03/03 01:50:22;;;;;;;49.40;28.88;;;8.30;99.90;;;;;;5039927;28;20257;-69
2024/03/03 01:52:51;;;;;;;53.28;29.58;;;8.10;99.90;;;;;;5039946;28;20116;-69
2024/03/03 01:55:21;;;;;;;54.17;31.50;;;8.40;99.90;;;;;;5041320;28;20033;-70
2024/03/03 01:58:01;;;;;;;56.90;29.98;;;8.80;99.90;;;;;;5041441;28;20013;-69
2024/03/03 02:00:29;;;;;;;53.03;29.85;;;8.50;99.90;;;;;;5041007;28;20317;-69
2024/03/03 02:02:56;;;;;;;54.45;29.45;;;8.50;99.90;;;;;;5053256;28;20044;-69
2024/03/03 02:05:22;;;;;;;50.55;29.45;;;;;;;;;;5041047;28;20027;-70
2024/03/03 02:07:48;;;;;;;48.53;26.67;;;8.70;99.90;;;;;;5040929;28;20089;-70
2024/03/03 02:10:15;;;;;;;53.67;30.10;;;8.50;99.90;;;;;;5040812;28;20025;-70
2024/03/03 02:12:45;;;;;;;51.15;28.13;;;;;;;;;;5023644;28;20094;-69
2024/03/03 02:15:11;;;;;;;47.75;28.92;;;;;;;;;;5021227;28;20030;-69
2024/03/03 02:17:37;;;;;;;49.88;29.05;;;;;;;;;;5020939;28;20021;-68
2024/03/03 02:20:04;;;;;;;46.45;29.05;;;8.80;99.90;;;;;;5020832;28;20022;-69
2024/03/03 02:22:30;;;;;;;53.80;28.17;;;;;;;;;;5020951;28;20160;-67
2024/03/03 02:24:57;;;;;;;51.42;28.88;;;;;;;;;;5020814;28;20030;-67
2024/03/03 02:27:23;;;;;;;47.25;28.42;;;8.70;99.90;;;;;;5027295;28;20063;-67
2024/03/03 02:29:49;;;;;;;50.83;27.25;;;9.00;99.90;;;;;;5040558;28;20025;-66
2024/03/03 02:32:15;;;;;;;42.92;26.92;;;;;;;;;;5040627;28;20032;-68
2024/03/03 02:34:41;;;;;;;48.95;27.77;;;;;;;;;;5040316;28;20302;-68
2024/03/03 02:37:07;;;;;;;41.00;27.02;;;8.70;99.90;;;;;;5040694;28;20071;-68
2024/03/03 02:39:33;;;;;;;44.22;26.67;;;8.80;99.90;;;;;;5040543;28;20026;-68
2024/03/03 02:42:01;;;;;;;43.47;26.98;;;8.70;99.90;;;;;;5040334;28;20032;-69
2024/03/03 02:44:27;;;;;;;41.92;25.52;;;;;;;;;;5040310;28;20025;-67
2024/03/03 02:46:54;;;;;;;46.55;26.73;;;;;;;;;;5039971;28;20037;-67
2024/03/03 02:49:21;;;;;;;47.53;26.98;;;8.90;99.90;;;;;;5040272;28;20036;-66
2024/03/03 02:51:47;;;;;;;43.85;25.95;;;;;;;;;;5040032;28;20022;-66
2024/03/03 02:54:13;;;;;;;42.03;26.80;;;;;;;;;;5040184;28;20029;-67
2024/03/03 02:56:39;;;;;;;47.47;27.48;;;;;;;;;;5040145;28;20056;-67
2024/03/03 02:59:07;;;;;;;43.95;25.60;;;8.70;99.90;;;;;;5040426;28;20325;-66
2024/03/03 03:01:32;;;;;;;46.10;27.80;;;8.40;99.90;;;;;;5039718;28;20432;-67
2024/03/03 03:03:58;;;;;;;45.58;27.65;;;;;;;;;;5040092;28;20036;-66
2024/03/03 03:06:28;;;;;;;57.63;28.67;;;8.30;99.90;;;;;;5040223;28;20025;-69
2024/03/03 03:08:53;;;;;;;44.17;27.10;;;8.20;99.90;;;;;;5039829;28;20359;-67
2024/03/03 03:11:19;;;;;;;44.50;27.30;;;;;;;;;;5033675;28;20029;-68
2024/03/03 03:13:45;;;;;;;53.78;28.83;;;8.30;99.90;;;;;;5020513;28;20029;-68
2024/03/03 03:16:11;;;;;;;48.22;29.05;;;8.20;99.90;;;;;;5020468;28;20356;-68
2024/03/03 03:18:36;;;;;;;43.08;26.33;;;8.20;99.90;;;;;;5029014;28;20213;-70
2024/03/03 03:21:06;;;;;;;48.83;28.17;;;8.20;99.90;;;;;;5039988;28;20124;-69
2024/03/03 03:23:32;;;;;;;46.15;28.52;;;;;;;;;;5040030;28;20090;-68
2024/03/03 03:25:58;;;;;;;45.20;26.88;;;;;;;;;;5039850;28;20029;-68
2024/03/03 03:28:24;;;;;;;46.10;26.73;;;;;;;;;;5039655;28;20566;-68
2024/03/03 03:30:50;;;;;;;46.00;28.38;;;;;;;;;;5039877;28;20285;-68
2024/03/03 03:33:16;;;;;;;50.45;29.15;;;;;;;;;;5039997;28;20025;-68
2024/03/03 03:35:42;;;;;;;46.10;26.58;;;;;;;;;;5039359;28;20628;-68
2024/03/03 03:38:08;;;;;;;47.58;28.02;;;;;;;;;;5040005;28;20052;-69
2024/03/03 03:40:34;;;;;;;46.38;29.17;;;8.10;99.90;;;;;;5039917;28;20258;-69
2024/03/03 03:43:04;;;;;;;51.03;29.20;;;;;;;;;;5039903;28;20048;-69
2024/03/03 03:45:31;;;;;;;48.70;28.98;;;8.10;99.90;;;;;;5040708;28;20128;-69
2024/03/03 03:47:56;;;;;;;53.00;30.38;;;8.10;99.90;;;;;;5040322;28;20017;-69
2024/03/03 03:50:22;;;;;;;52.28;29.83;;;;;;;;;;5040463;28;20329;-70
2024/03/03 03:52:48;;;;;;;46.60;28.95;;;;;;;;;;5040412;28;20025;-70
2024/03/03 03:55:14;;;;;;;52.20;28.90;;;;;;;;;;5040846;28;20348;-70
2024/03/03 03:57:40;;;;;;;49.85;28.20;;;;;;;;;;5041513;28;20039;-68
2024/03/03 04:00:10;;;;;;;47.10;28.15;;;7.90;99.90;;;;;;5047522;28;20051;-69
2024/03/03 04:02:38;;;;;;;44.03;25.63;;;7.80;99.90;;;;;;5047824;28;20045;-70
2024/03/03 04:05:04;;;;;;;40.17;23.45;;;;;;;;;;5047856;28;20026;-70
2024/03/03 04:07:32;;;;;;;36.78;23.10;;;7.80;99.90;;;;;;5047488;28;20092;-69
2024/03/03 04:09:58;;;;;;;39.65;23.55;;;;;;;;;;5047799;28;20021;-67
2024/03/03 04:12:24;;;;;;;37.95;22.60;;;;;;;;;;5032999;28;20049;-70
2024/03/03 04:14:50;;;;;;;39.45;22.20;;;;;;;;;;5028257;28;20010;-70
2024/03/03 04:17:16;;;;;;;33.35;20.08;;;7.80;99.90;;;;;;5028041;28;20371;-70
2024/03/03 04:19:42;;;;;;;35.05;22.02;;;;;;;;;;5026833;28;20088;-70
2024/03/03 04:22:08;;;;;;;31.92;20.50;;;;;;;;;;5024809;28;20033;-69
2024/03/03 04:24:34;;;;;;;38.15;20.92;;;;;;;;;;5024373;28;20063;-70
2024/03/03 04:27:00;;;;;;;32.45;19.98;;;7.80;99.90;;;;;;5035508;28;20240;-69
2024/03/03 04:29:26;;;;;;;33.65;19.77;;;;;;;;;;5043766;28;20045;-68
2024/03/03 04:31:53;;;;;;;27.25;17.52;;;;;;;;;;5043438;28;20017;-68
2024/03/03 04:34:19;;;;;;;33.00;19.13;;;;;;;;;;5042992;28;20025;-68
2024/03/03 04:36:45;;;;;;;33.85;18.98;;;8.10;99.90;;;;;;5043082;28;20025;-68
2024/03/03 04:39:15;;;;;;;28.65;18.25;;;8.20;99.90;;;;;;5043230;28;20025;-69
2024/03/03 04:41:41;;;;;;;29.42;17.88;;;8.20;99.90;;;;;;5043055;28;20033;-68
2024/03/03 04:44:07;;;;;;;29.35;18.83;;;;;;;;;;5042776;28;20021;-74
2024/03/03 04:46:33;;;;;;;28.83;18.50;;;;;;;;;;5042396;28;20021;-70
2024/03/03 04:49:00;;;;;;;30.17;18.23;;;8.20;99.90;;;;;;5042469;28;20022;-70
2024/03/03 04:51:25;;;;;;;29.25;17.40;;;8.10;99.90;;;;;;5042502;28;20079;-70
2024/03/03 04:53:51;;;;;;;29.63;17.33;;;8.40;99.90;;;;;;5042589;28;20241;-70
2024/03/03 04:56:18;;;;;;;24.60;16.30;;;;;;;;;;5042576;28;20083;-70
2024/03/03 04:58:44;;;;;;;28.58;17.52;;;8.30;99.90;;;;;;5042539;28;20088;-70
2024/03/03 05:01:10;;;;;;;24.05;15.93;;;8.10;99.90;;;;;;5042446;28;20033;-71
2024/03/03 05:03:38;;;;;;;28.25;17.63;;;7.90;99.90;;;;;;5043095;28;20328;-70
2024/03/03 05:06:06;;;;;;;29.92;17.88;;;8.00;99.90;;;;;;5052270;28;20586;-70
2024/03/03 05:08:33;;;;;;;32.05;17.10;;;8.00;99.90;;;;;;5040681;28;20049;-71
2024/03/03 05:11:00;;;;;;;28.70;17.67;;;8.00;99.90;;;;;;5037502;28;20030;-70
2024/03/03 05:13:26;;;;;;;30.27;17.83;;;;;;;;;;5021468;28;20026;-70
2024/03/03 05:15:52;;;;;;;30.73;17.27;;;;;;;;;;5021848;28;20033;-70
2024/03/03 05:18:18;;;;;;;30.13;17.10;;;;;;;;;;5036263;28;20024;-70
2024/03/03 05:20:44;;;;;;;28.60;16.83;;;8.00;99.90;;;;;;5041850;28;20017;-69
2024/03/03 05:23:10;;;;;;;30.45;18.27;;;7.90;99.90;;;;;;5039590;28;20229;-66
2024/03/03 05:25:37;;;;;;;28.60;16.67;;;7.90;99.90;;;;;;5026260;28;20076;-70
2024/03/03 05:28:03;;;;;;;26.60;17.73;;;;;;;;;;5021994;28;20105;-66
2024/03/03 05:30:29;;;;;;;29.13;17.13;;;;;;;;;;5021606;28;20305;-66
2024/03/03 05:32:55;;;;;;;31.80;17.73;;;;;;;;;;5021683;28;20306;-66
2024/03/03 05:35:21;;;;;;;29.50;17.88;;;;;;;;;;5036018;28;20061;-66
2024/03/03 05:37:47;;;;;;;34.33;19.75;;;;;;;;;;5041650;28;20035;-67
2024/03/03 05:40:13;;;;;;;26.75;16.90;;;;;;;;;;5041241;28;20207;-65
2024/03/03 05:42:39;;;;;;;28.08;17.08;;;7.80;99.90;;;;;;5041383;28;20082;-65
2024/03/03 05:45:06;;;;;;;34.85;18.23;;;7.70;99.90;;;;;;5041480;28;20029;-67
2024/03/03 05:47:32;;;;;;;29.60;17.30;;;;;;;;;;5032667;28;20014;-66
2024/03/03 05:49:58;;;;;;;26.85;17.83;;;;;;;;;;5024828;28;20389;-66
2024/03/03 05:52:24;;;;;;;30.02;17.75;;;;;;;;;;5041216;28;20059;-66
2024/03/03 05:54:50;;;;;;;31.45;19.27;;;8.00;99.90;;;;;;5041057;28;20017;-67
2024/03/03 05:57:16;;;;;;;28.13;18.67;;;;;;;;;;5041014;28;20321;-67
2024/03/03 05:59:42;;;;;;;28.30;16.60;;;;;;;;;;5040982;28;20033;-67
2024/03/03 06:02:07;;;;;;;32.33;18.67;;;7.80;99.90;;;;;;5040956;28;20029;-67
2024/03/03 06:04:37;;;;;;;27.60;16.73;;;;;;;;;;5040659;28;20032;-68
2024/03/03 06:07:07;;;;;;;27.30;17.40;;;8.00;99.90;;;;;;5040861;28;20104;-67
2024/03/03 06:09:36;;;;;;;31.23;18.73;;;;;;;;;;5040619;28;20018;-67
2024/03/03 06:12:02;;;;;;;;;;;8.00;99.90;;;;;;5029318;28;20026;-68
2024/03/03 06:14:28;;;;;;;30.77;17.40;;;8.10;99.90;;;;;;5020685;28;19908;-68
2024/03/03 06:16:54;;;;;;;30.60;17.77;;;;;;;;;;5020794;28;20089;-67
2024/03/03 06:19:20;;;;;;;31.55;18.15;;;;;;;;;;5020814;28;20073;-68
2024/03/03 06:21:49;;;;;;;30.63;18.23;;;;;;;;;;5035986;28;20253;-68
2024/03/03 06:24:17;;;;;;;29.48;18.20;;;8.50;99.90;;;;;;5040634;28;20103;-69
2024/03/03 06:26:43;;;;;;;33.60;21.20;;;8.80;99.90;;;;;;5040399;28;20097;-69
2024/03/03 06:29:09;;;;;;;35.05;20.15;;;;;;;;;;5040176;28;20013;-70
2024/03/03 06:31:34;;;;;;;38.58;22.80;;;8.30;99.90;;;;;;5040405;28;20037;-69
2024/03/03 06:34:01;;;;;;;39.42;23.08;;;8.40;99.90;;;;;;5040222;28;20519;-68
2024/03/03 06:36:27;;;;;;;42.40;22.65;;;8.50;99.90;;;;;;5040256;28;20245;-68
2024/03/03 06:38:56;;;;;;;45.47;24.58;;;;;;;;;;5040170;28;20075;-68
2024/03/03 06:41:22;;;;;;;41.92;23.95;;;;;;;;;;5040256;28;20049;-67
2024/03/03 06:43:48;;;;;;;47.90;25.25;;;8.50;99.90;;;;;;5038635;28;20229;-68
2024/03/03 06:46:13;;;;;;;48.33;26.55;;;8.80;99.90;;;;;;5040090;28;20018;-68
2024/03/03 06:48:39;;;;;;;40.97;24.48;;;;;;;;;;5040016;28;20071;-67
2024/03/03 06:51:06;;;;;;;44.63;27.30;;;8.60;99.90;;;;;;5040317;28;20089;-68
2024/03/03 06:53:38;;;;;;;46.45;27.10;;;8.70;99.90;;;;;;5038993;28;20040;-68
2024/03/03 06:56:04;;;;;;;46.33;26.67;;;;;;;;;;5038769;28;20075;-68
2024/03/03 06:58:30;;;;;;;43.85;26.13;;;;;;;;;;5040274;28;20025;-69
2024/03/03 07:00:56;;;;;;;47.92;26.42;;;;;;;;;;5039896;28;20051;-70
2024/03/03 07:03:44;;;;;;;49.35;26.73;;;;;;;;;;5039762;28;20207;-68
2024/03/03 07:06:08;;;;;;;46.40;28.23;;;;;;;;;;5039724;28;20065;-69
2024/03/03 07:08:34;;;;;;;46.70;26.83;;;;;;;;;;5039533;28;20025;-68
2024/03/03 07:10:59;;;;;;;45.50;26.85;;;9.00;99.90;;;;;;5036167;28;20086;-68
2024/03/03 07:13:25;;;;;;;49.35;26.55;;;9.10;99.90;;;;;;5020218;28;20065;-68
2024/03/03 07:15:50;;;;;;;44.92;27.02;;;9.20;99.90;;;;;;5022292;28;20025;-69
2024/03/03 07:18:16;;;;;;;44.47;25.15;;;9.30;99.90;;;;;;5039768;28;20027;-67
2024/03/03 07:20:42;;;;;;;42.78;27.10;;;9.50;99.90;;;;;;5029376;28;20346;-65
2024/03/03 07:23:08;;;;;;;46.53;27.38;;;9.30;99.90;;;;;;5020058;28;20041;-69
2024/03/03 07:25:34;;;;;;;43.58;27.52;;;;;;;;;;5019931;28;20521;-68
2024/03/03 07:28:00;;;;;;;42.00;26.30;;;;;;;;;;5023718;28;20072;-68
2024/03/03 07:30:26;;;;;;;42.55;24.23;;;;;;;;;;5035446;28;20017;-65
2024/03/03 07:32:52;;;;;;;48.03;27.75;;;;;;;;;;5038794;28;20034;-65
2024/03/03 07:35:18;;;;;;;42.83;26.75;;;;;;;;;;5039117;28;20227;-66
2024/03/03 07:37:45;;;;;;;38.72;25.30;;;9.70;99.90;;;;;;5039181;28;20017;-65
2024/03/03 07:40:11;;;;;;;47.47;28.70;;;9.70;99.90;;;;;;5030177;28;20045;-67
2024/03/03 07:42:38;;;;;;;44.80;27.55;;;;;;;;;;5039304;28;20034;-68
2024/03/03 07:45:04;;;;;;;48.42;26.98;;;10.40;99.90;;;;;;5039755;28;20059;-67
2024/03/03 07:47:30;;;;;;;46.40;28.35;;;;;;;;;;5039196;28;20248;-69
2024/03/03 07:49:56;;;;;;;45.90;27.40;;;;;;;;;;5039070;28;20364;-67
2024/03/03 07:52:22;;;;;;;46.10;27.05;;;;;;;;;;5034706;28;20026;-67
2024/03/03 07:54:49;;;;;;;41.72;27.30;;;10.10;99.90;;;;;;5019473;28;20025;-66
2024/03/03 07:57:15;;;;;;;46.90;27.60;;;10.40;99.90;;;;;;5019486;28;20183;-67
2024/03/03 07:59:40;;;;;;;43.50;27.27;;;10.50;99.90;;;;;;5021680;28;20350;-67
2024/03/03 08:02:06;;;;;;;45.60;28.25;;;;;;;;;;5027124;28;20052;-68
2024/03/03 08:04:32;;;;;;;46.83;28.63;;;10.40;99.90;;;;;;5027264;28;20081;-67
2024/03/03 08:06:58;;;;;;;42.15;26.60;;;10.90;99.90;;;;;;5033067;28;20140;-67
2024/03/03 08:09:24;;;;;;;41.70;26.30;;;;;;;;;;5045103;28;20032;-67
2024/03/03 08:11:50;;;;;;;43.28;27.73;;;;;;;;;;5051621;28;20039;-68
2024/03/03 08:14:18;;;;;;;41.10;26.35;;;10.80;99.90;;;;;;5018635;28;20354;-67
2024/03/03 08:16:44;;;;;;;39.20;26.48;;;;;;;;;;5021270;28;20038;-67
2024/03/03 08:19:09;;;;;;;41.80;26.25;;;10.70;99.90;;;;;;5033779;28;20344;-67
2024/03/03 08:21:35;;;;;;;44.42;26.88;;;11.00;99.90;;;;;;5036162;28;20057;-67
2024/03/03 08:24:01;;;;;;;41.67;27.83;;;;;;;;;;5035857;28;20214;-66
2024/03/03 08:26:27;;;;;;;40.80;27.90;;;;;;;;;;5037612;28;20117;-67
2024/03/03 08:28:53;;;;;;;41.55;27.88;;;10.90;99.90;;;;;;5038070;28;20041;-66
2024/03/03 08:31:19;;;;;;;39.10;27.02;;;;;;;;;;5038880;28;20036;-68
2024/03/03 08:33:45;;;;;;;41.85;28.40;;;11.20;99.90;;;;;;5038957;28;20194;-67
2024/03/03 08:36:10;;;;;;;40.13;28.13;;;11.20;99.90;;;;;;5026932;28;20514;-67
2024/03/03 08:38:38;;;;;;;39.55;27.35;;;;;;;;;;5021586;28;20029;-67
2024/03/03 08:41:04;;;;;;;42.33;28.67;;;11.40;99.90;;;;;;5035001;28;20174;-67
2024/03/03 08:43:30;;;;;;;40.20;28.30;;;11.60;99.90;;;;;;5028835;28;20350;-67
2024/03/03 08:45:55;;;;;;;41.42;28.15;;;11.70;99.90;;;;;;5024798;28;20365;-66
2024/03/03 08:48:24;;;;;;;47.30;30.00;;;11.70;99.90;;;;;;5022442;28;20314;-66
2024/03/03 08:50:50;;;;;;;37.90;27.10;;;11.80;99.90;;;;;;5024526;28;20030;-66
2024/03/03 08:53:16;;;;;;;37.08;26.42;;;11.90;99.90;;;;;;5022324;28;20104;-66
2024/03/03 08:55:41;;;;;;;40.50;27.38;;;11.90;99.90;;;;;;5022440;28;20097;-66
2024/03/03 08:58:07;;;;;;;37.10;27.05;;;12.30;99.90;;;;;;5026996;28;20116;-67
2024/03/03 09:00:33;;;;;;;39.42;26.90;;;12.10;99.90;;;;;;5042304;28;20064;-66
2024/03/03 09:02:59;;;;;;;35.38;24.10;;;12.40;99.90;;;;;;5042103;28;20348;-66
2024/03/03 09:05:26;;;;;;;37.88;25.55;;;12.20;99.90;;;;;;5042129;28;20032;-65
2024/03/03 09:07:53;;;;;;;35.00;24.60;;;12.20;99.90;;;;;;5042105;28;20044;-66
2024/03/03 09:10:19;;;;;;;36.63;25.92;;;12.10;99.90;;;;;;5041630;28;20360;-66
2024/03/03 09:12:45;;;;;;;35.08;24.42;;;12.20;99.90;;;;;;5041708;28;20026;-66
2024/03/03 09:15:11;;;;;;;35.80;24.17;;;12.30;99.90;;;;;;5036764;28;20025;-66
2024/03/03 09:17:37;;;;;;;33.95;24.40;;;;;;;;;;5041566;28;20068;-66
2024/03/03 09:20:05;;;;;;;31.45;22.30;;;12.60;99.90;;;;;;5041837;28;20025;-65
2024/03/03 09:22:31;;;;;;;37.65;23.60;;;13.20;99.90;;;;;;5041256;28;20045;-65
2024/03/03 09:24:57;;;;;;;33.08;22.13;;;12.60;99.90;;;;;;5041736;28;20025;-65
2024/03/03 09:27:25;;;;;;;31.17;22.95;;;12.80;99.40;;;;;;5041426;28;20218;-66
2024/03/03 09:29:52;;;;;;;36.38;27.02;;;;;;;;;;5041620;28;20297;-66
2024/03/03 09:32:18;;;;;;;30.33;20.83;;;12.90;99.90;;;;;;5040546;28;20071;-66
2024/03/03 09:34:44;;;;;;;28.05;21.70;;;12.70;99.90;;;;;;5021380;28;20096;-66
2024/03/03 09:37:14;;;;;;;35.55;26.40;;;12.70;99.90;;;;;;5027772;28;20046;-66
2024/03/03 09:39:39;;;;;;;;;;;12.70;97.80;;;;;;5033123;28;20147;-67
2024/03/03 09:42:05;;;;;;;33.97;24.83;;;13.80;99.90;;;;;;5038038;28;19920;-68
2024/03/03 09:44:43;;;;;;;33.08;21.58;;;12.80;99.90;;;;;;5032273;28;20567;-67
2024/03/03 09:47:13;;;;;;;32.50;24.00;;;13.20;99.90;;;;;;5035091;28;20057;-66
2024/03/03 09:49:43;;;;;;;32.17;23.98;;;13.20;99.90;;;;;;5027075;28;20041;-66
2024/03/03 09:52:12;;;;;;;34.45;25.58;;;13.20;99.90;;;;;;5032501;28;20064;-68
2024/03/03 09:54:41;;;;;;;34.55;24.13;;;13.20;99.90;;;;;;5032541;28;20025;-67
2024/03/03 09:57:13;;;;;;;;;;;13.30;96.10;;;;;;5041715;28;20321;-67
2024/03/03 09:59:42;;;;;;;32.95;23.20;;;13.40;99.90;;;;;;5042889;28;19972;-69
2024/03/03 10:02:16;;;;;;;31.02;23.23;;;13.90;99.90;;;;;;5042702;28;20041;-66
2024/03/03 10:04:45;;;;;;;33.17;23.48;;;13.60;99.90;;;;;;5041918;28;20017;-65
2024/03/03 10:07:21;;;;;;;31.33;23.65;;;13.50;99.90;;;;;;5041916;28;20025;-67
2024/03/03 10:09:54;;;;;;;34.47;23.23;;;13.40;99.90;;;;;;5042019;28;20355;-66
2024/03/03 10:12:22;;;;;;;28.58;22.77;;;13.60;95.20;;;;;;5023337;28;20152;-67
2024/03/03 10:14:48;;;;;;;25.07;19.43;;;14.10;99.90;;;;;;5021906;28;20022;-66
2024/03/03 10:17:14;;;;;;;24.30;18.00;;;13.90;95.00;;;;;;5021932;28;20040;-66
2024/03/03 10:19:40;;;;;;;24.95;17.02;;;14.30;99.00;;;;;;5021912;28;20046;-66
2024/03/03 10:22:13;;;;;;;24.50;18.95;;;14.10;99.00;;;;;;5021768;28;20037;-69
2024/03/03 10:24:39;;;;;;;23.58;18.00;;;14.30;99.30;;;;;;5038084;28;20052;-73
2024/03/03 10:27:07;;;;;;;23.88;16.77;;;14.30;92.70;;;;;;5040387;28;20071;-68
2024/03/03 10:29:32;;;;;;;23.07;18.47;;;14.50;97.50;;;;;;5040834;28;20057;-68
2024/03/03 10:31:59;;;;;;;27.45;19.63;;;14.50;91.30;;;;;;5040501;28;20040;-68
2024/03/03 10:34:25;;;;;;;31.33;23.63;;;14.40;97.00;;;;;;5040142;28;20036;-71
2024/03/03 10:37:01;;;;;;;30.33;21.38;;;14.30;90.30;;;;;;5040640;28;20049;-72
2024/03/03 10:39:27;;;;;;;31.80;23.38;;;14.20;97.30;;;;;;5034013;28;20052;-76
2024/03/03 10:41:52;;;;;;;31.58;23.50;;;14.20;90.70;;;;;;5039740;28;20041;-70
2024/03/03 10:44:18;;;;;;;28.73;20.98;;;14.20;90.70;;;;;;5040603;28;20093;-70
2024/03/03 10:46:46;;;;;;;31.33;22.95;;;13.80;97.40;;;;;;5023921;28;20026;-67
2024/03/03 10:49:13;;;;;;;26.73;17.40;;;14.20;97.60;;;;;;5021122;28;20034;-68
2024/03/03 10:51:38;;;;;;;24.92;20.00;;;14.20;98.40;;;;;;5020802;28;20095;-65
2024/03/03 10:54:05;;;;;;;30.98;21.67;;;14.30;98.10;;;;;;5020383;28;20088;-66
2024/03/03 10:56:32;;;;;;;25.38;19.38;;;14.10;97.60;;;;;;5020840;28;20213;-66
2024/03/03 10:59:01;;;;;;;28.08;21.73;;;14.50;97.50;;;;;;5040118;28;20079;-66
2024/03/03 11:01:28;;;;;;;31.08;19.15;;;14.30;91.00;;;;;;5040034;28;20385;-66
2024/03/03 11:03:55;;;;;;;28.08;19.40;;;14.50;97.90;;;;;;5039617;28;20025;-66
2024/03/03 11:06:22;;;;;;;23.90;18.23;;;14.60;97.30;;;;;;5039813;28;20067;-67
2024/03/03 11:08:52;;;;;;;23.50;18.73;;;14.80;96.50;;;;;;5039785;28;20261;-65
2024/03/03 11:11:24;;;;;;;23.90;17.17;;;14.80;90.00;;;;;;5041221;28;20021;-65
2024/03/03 11:13:58;;;;;;;20.27;15.68;;;14.90;88.50;;;;;;5049254;28;20104;-66
2024/03/03 11:16:28;;;;;;;21.55;16.20;;;15.10;94.80;;;;;;5039582;28;20053;-65
2024/03/03 11:19:01;;;;;;;24.52;16.55;;;15.10;94.40;;;;;;5040526;28;20029;-66
2024/03/03 11:21:29;;;;;;;23.40;16.98;;;15.10;84.30;;;;;;5041161;28;20022;-65
2024/03/03 11:24:19;;;;;;;20.95;16.83;;;15.50;94.70;;;;;;5041078;28;20049;-66
2024/03/03 11:26:49;;;;;;;23.35;16.35;;;15.50;93.80;;;;;;5040807;28;20191;-65
2024/03/03 11:29:19;;;;;;;21.00;13.98;;;15.40;93.70;;;;;;5041195;28;20144;-68
2024/03/03 11:31:47;;;;;;;18.42;14.68;;;15.50;92.70;;;;;;5041501;28;20029;-67
2024/03/03 11:34:13;;;;;;;21.13;14.55;;;15.60;82.40;;;;;;5041226;28;20305;-67
2024/03/03 11:36:40;;;;;;;18.00;14.50;;;15.70;81.10;;;;;;5041387;28;20064;-67
2024/03/03 11:39:14;;;;;;;17.25;12.93;;;15.60;91.20;;;;;;5040888;28;20033;-67
2024/03/03 11:41:42;;;;;;;19.63;12.35;;;15.80;79.50;;;;;;5039368;28;20043;-66
2024/03/03 11:44:36;;;;;;;17.42;12.13;;;16.10;90.80;;;;;;5040673;28;20056;-67
2024/03/03 11:47:05;;;;;;;16.75;11.57;;;16.20;82.40;;;;;;5040353;28;20037;-69
2024/03/03 11:49:39;;;;;;;13.73;11.40;;;16.40;89.70;;;;;;5039536;28;20052;-67
2024/03/03 11:52:04;;;;;;;14.80;10.68;;;16.30;89.30;;;;;;5039211;28;20029;-68
2024/03/03 11:54:34;;;;;;;14.20;10.15;;;16.90;87.70;;;;;;5037754;28;20044;-67
2024/03/03 11:56:59;;;;;;;17.45;10.65;;;16.80;87.50;;;;;;5039171;28;20029;-65
2024/03/03 11:59:38;;;;;;;16.83;10.45;;;16.70;73.40;;;;;;5032098;28;20099;-66
2024/03/03 12:02:04;;;;;;;15.00;10.35;;;16.90;71.30;;;;;;5019483;28;20045;-67
2024/03/03 12:04:31;;;;;;;14.90;10.75;;;17.00;71.10;;;;;;5019805;28;20129;-66
2024/03/03 12:06:57;;;;;;;14.43;9.10;;;17.10;71.30;;;;;;5039269;28;20032;-66
2024/03/03 12:09:24;;;;;;;11.45;8.70;;;17.20;70.60;;;;;;5039571;28;20106;-67
2024/03/03 12:11:53;;;;;;;12.57;9.48;;;17.20;70.40;;;;;;5025262;28;20064;-66
2024/03/03 12:14:19;;;;;;;15.63;9.55;;;17.20;69.20;;;;;;5019607;28;20348;-66
2024/03/03 12:16:45;;;;;;;13.23;9.02;;;17.30;69.00;;;;;;5019993;28;20014;-65
2024/03/03 12:19:10;;;;;;;12.02;9.02;;;17.40;68.80;;;;;;5021304;28;20436;-65
2024/03/03 12:21:37;;;;;;;13.45;9.23;;;;;;;;;;5023854;28;20658;-67
2024/03/03 12:24:08;;;;;;;11.93;8.70;;;;;;;;;;5043368;28;20017;-66
2024/03/03 12:26:34;;;;;;;11.02;8.50;;;17.60;66.70;;;;;;5043231;28;20059;-65
2024/03/03 12:29:01;;;;;;;11.38;6.22;;;17.60;66.90;;;;;;5043213;28;20250;-65
2024/03/03 12:31:30;;;;;;;7.32;5.75;;;17.70;66.60;;;;;;5043000;28;20031;-66
2024/03/03 12:33:57;;;;;;;9.68;7.00;;;17.90;79.10;;;;;;5042991;28;20311;-65
2024/03/03 12:36:23;;;;;;;9.02;6.90;;;17.80;65.90;;;;;;5042646;28;20087;-67
2024/03/03 12:38:49;;;;;;;9.18;7.13;;;17.90;64.80;;;;;;5041864;28;20033;-69
2024/03/03 12:41:15;;;;;;;11.88;7.90;;;18.00;65.10;;;;;;5042780;28;20084;-66
2024/03/03 12:43:41;;;;;;;10.57;7.45;;;18.10;64.70;;;;;;5042786;28;20244;-68
2024/03/03 12:46:08;;;;;;;9.70;7.57;;;18.50;76.60;;;;;;5042874;28;20040;-66
2024/03/03 12:48:33;;;;;;;11.55;8.75;;;18.10;63.70;;;;;;5042814;28;20059;-69
2024/03/03 12:50:59;;;;;;;10.50;7.85;;;18.50;74.10;;;;;;5042725;28;20026;-66
2024/03/03 12:53:26;;;;;;;11.73;7.10;;;18.30;62.70;;;;;;5042622;28;20025;-65
2024/03/03 12:55:53;;;;;;;11.05;7.60;;;18.40;62.30;;;;;;5042285;28;20021;-65
2024/03/03 12:58:19;;;;;;;11.10;8.77;;;18.40;62.20;;;;;;5042041;28;20229;-66
2024/03/03 13:00:46;;;;;;;12.68;8.77;;;18.70;62.30;;;;;;5043233;28;20021;-65
2024/03/03 13:03:12;;;;;;;11.95;8.40;;;19.70;61.70;;;;;;5041613;28;20383;-65
2024/03/03 13:05:37;;;;;;;10.57;8.98;;;23.90;56.50;;;;;;5042734;28;20056;-66
2024/03/03 13:08:03;;;;;;;13.45;9.07;;;28.40;48.00;;;;;;5044707;28;20025;-65